Time;durP1;ratioP1;P1;durP2;ratioP2;P2;SDS_P1;SDS_P2;PMS_P1;PMS_P2;Temp;Humidity;BMP_temperature;BMP_pressure;BME280_temperature;BME280_humidity;BME280_pressure;Samples;Min_cycle;Max_cycle;Signal;HPM_P1;HPM_P2
2022/03/09 00:01:26;;;;;;;12.05;4.32;;;;;;;;;;4982486;28;20022;-80
2022/03/09 00:03:52;;;;;;;7.68;4.22;;;;;;;;;;4977639;28;20032;-80
2022/03/09 00:06:19;;;;;;;6.15;3.67;;;;;;;;;;4982035;28;20120;-81
2022/03/09 00:08:45;;;;;;;7.47;3.67;;;;;;;;;;4995294;28;20033;-81
2022/03/09 00:11:11;;;;;;;6.28;3.35;;;;;;;;;;4980177;28;20050;-80
2022/03/09 00:13:37;;;;;;;6.82;3.85;;;;;;;;;;4991964;28;20037;-81
2022/03/09 00:16:03;;;;;;;7.13;3.35;;;;;;;;;;4995499;28;20437;-80
2022/03/09 00:18:29;;;;;;;7.88;4.28;;;;;;;;;;4980861;28;20030;-80
2022/03/09 00:20:55;;;;;;;7.78;3.83;;;;;;;;;;4979280;28;20052;-80
2022/03/09 00:23:21;;;;;;;16.77;5.50;;;;;;;;;;4978423;28;20161;-80
2022/03/09 00:25:47;;;;;;;14.65;4.47;;;;;;;;;;4980392;28;20140;-80
2022/03/09 00:28:13;;;;;;;10.80;3.67;;;;;;;;;;4996626;28;20035;-80
2022/03/09 00:30:39;;;;;;;5.43;3.30;;;;;;;;;;4981382;28;20029;-80
2022/03/09 00:33:05;;;;;;;7.07;3.63;;;;;;;;;;4985623;28;20053;-81
2022/03/09 00:35:31;;;;;;;6.72;3.97;;;;;;;;;;4982550;28;20045;-80
2022/03/09 00:37:57;;;;;;;7.28;4.20;;;;;;;;;;4981290;28;20388;-80
2022/03/09 00:40:23;;;;;;;10.32;4.25;;;;;;;;;;4992388;28;20022;-80
2022/03/09 00:42:49;;;;;;;10.60;4.97;;;;;;;;;;4979110;28;20402;-80
2022/03/09 00:45:15;;;;;;;16.45;4.63;;;;;;;;;;4976077;28;20037;-80
2022/03/09 00:47:41;;;;;;;12.25;4.80;;;;;;;;;;4979935;28;20080;-80
2022/03/09 00:50:08;;;;;;;10.75;4.85;;;;;;;;;;4998255;28;20113;-80
2022/03/09 00:52:34;;;;;;;10.95;5.22;;;;;;;;;;4979924;28;20029;-80
2022/03/09 00:55:01;;;;;;;6.82;4.38;;;;;;;;;;4995752;28;20054;-80
2022/03/09 00:57:27;;;;;;;8.18;4.13;;;;;;;;;;4978827;28;20033;-80
2022/03/09 00:59:53;;;;;;;8.90;3.58;;;;;;;;;;4984137;28;20432;-80
2022/03/09 01:02:19;;;;;;;9.50;4.10;;;;;;;;;;4997333;28;20688;-80
2022/03/09 01:04:45;;;;;;;9.95;3.38;;;;;;;;;;4982157;28;20037;-80
2022/03/09 01:07:11;;;;;;;11.60;3.45;;;;;;;;;;4980542;28;20057;-80
2022/03/09 01:09:38;;;;;;;9.45;3.63;;;;;;;;;;4996869;28;20092;-79
2022/03/09 01:12:04;;;;;;;7.65;3.75;;;;;;;;;;4980045;28;20483;-80
2022/03/09 01:14:30;;;;;;;8.55;3.20;;;;;;;;;;4974828;28;20037;-80
2022/03/09 01:16:57;;;;;;;8.10;3.67;;;;;;;;;;4977410;28;20044;-80
2022/03/09 01:19:23;;;;;;;8.32;3.80;;;;;;;;;;4997423;28;20092;-80
2022/03/09 01:21:49;;;;;;;9.98;4.25;;;;;;;;;;4994265;28;20025;-80
2022/03/09 01:24:15;;;;;;;9.95;4.57;;;;;;;;;;4979667;28;20152;-80
2022/03/09 01:26:42;;;;;;;13.00;5.95;;;;;;;;;;4980318;28;20033;-80
2022/03/09 01:29:09;;;;;;;13.98;6.28;;;;;;;;;;4995814;28;20030;-80
2022/03/09 01:31:35;;;;;;;11.38;5.00;;;;;;;;;;4996662;28;20035;-80
2022/03/09 01:34:02;;;;;;;13.60;4.40;;;;;;;;;;4992291;28;20414;-80
2022/03/09 01:36:28;;;;;;;13.48;5.88;;;;;;;;;;4993385;28;20457;-80
2022/03/09 01:38:54;;;;;;;9.45;5.18;;;;;;;;;;4980610;28;20021;-80
2022/03/09 01:41:20;;;;;;;12.63;5.07;;;;;;;;;;4984013;28;20041;-80
2022/03/09 01:44:04;;;;;;;8.32;4.53;;;;;;;;;;4998463;28;20037;-80
2022/03/09 01:46:30;;;;;;;8.02;3.70;;;;;;;;;;4981731;28;20659;-80
2022/03/09 01:48:56;;;;;;;7.47;3.85;;;;;;;;;;4980679;28;20026;-80
2022/03/09 01:51:23;;;;;;;18.38;3.92;;;;;;;;;;4996197;28;20037;-80
2022/03/09 01:53:50;;;;;;;6.38;3.92;;;;;;;;;;4998117;28;20034;-80
2022/03/09 01:56:16;;;;;;;13.15;4.65;;;;;;;;;;4998038;28;20671;-80
2022/03/09 01:58:42;;;;;;;11.40;4.43;;;;;;;;;;4994936;28;20129;-80
2022/03/09 02:01:09;;;;;;;7.97;4.00;;;;;;;;;;4980376;28;20377;-80
2022/03/09 02:03:40;;;;;;;8.18;4.07;;;;;;;;;;4992685;28;20728;-81
2022/03/09 02:06:07;;;;;;;11.27;4.40;;;;;;;;;;4983064;28;20030;-80
2022/03/09 02:11:25;;;;;;;16.55;4.45;;;;;;;;;;4997640;28;20096;-79
2022/03/09 02:13:51;;;;;;;12.68;4.43;;;;;;;;;;4978893;28;20041;-80
2022/03/09 02:16:17;;;;;;;6.68;4.10;;;;;;;;;;4984143;28;20029;-80
2022/03/09 02:18:43;;;;;;;8.52;4.05;;;;;;;;;;4996644;28;20041;-80
2022/03/09 02:21:11;;;;;;;7.28;4.07;;;;;;;;;;4992946;28;20060;-80
2022/03/09 02:23:38;;;;;;;7.63;3.80;;;;;;;;;;4985320;28;20501;-80
2022/03/09 02:26:05;;;;;;;10.30;4.60;;;;;;;;;;4996951;28;20061;-80
2022/03/09 02:28:31;;;;;;;10.40;4.70;;;;;;;;;;4999903;28;20026;-80
2022/03/09 02:30:57;;;;;;;10.75;4.32;;;;;;;;;;4977222;28;20088;-80
2022/03/09 02:33:23;;;;;;;9.93;4.28;;;;;;;;;;4983311;28;20036;-80
2022/03/09 02:35:52;;;;;;;7.90;4.45;;;;;;;;;;4983107;28;20033;-80
2022/03/09 02:38:18;;;;;;;8.98;4.75;;;;;;;;;;4998621;28;20033;-80
2022/03/09 02:40:44;;;;;;;8.18;4.45;;;;;;;;;;4995179;28;20239;-80
2022/03/09 02:43:10;;;;;;;11.45;4.80;;;;;;;;;;4977416;28;20061;-79
2022/03/09 02:45:36;;;;;;;10.13;4.63;;;;;;;;;;4982113;28;20442;-80
2022/03/09 02:48:02;;;;;;;11.23;4.78;;;;;;;;;;4985846;28;20025;-80
2022/03/09 02:50:28;;;;;;;9.95;4.72;;;;;;;;;;5000200;28;20062;-80
2022/03/09 02:52:55;;;;;;;13.13;5.50;;;;;;;;;;4998940;28;20068;-80
2022/03/09 02:55:21;;;;;;;10.52;4.57;;;;;;;;;;4984722;28;20036;-80
2022/03/09 02:57:47;;;;;;;10.85;4.85;;;;;;;;;;4985323;28;20520;-80
2022/03/09 03:00:13;;;;;;;13.75;4.93;;;;;;;;;;4981738;28;20034;-81
2022/03/09 03:02:40;;;;;;;8.25;4.50;;;;;;;;;;4997462;28;20034;-80
2022/03/09 03:05:06;;;;;;;10.32;4.95;;;;;;;;;;4981029;28;20036;-80
2022/03/09 03:07:45;;;;;;;14.65;5.80;;;;;;;;;;4987425;28;20045;-80
2022/03/09 03:10:11;;;;;;;12.05;6.13;;;;;;;;;;4998677;28;20058;-80
2022/03/09 03:12:37;;;;;;;21.35;6.75;;;;;;;;;;5001549;28;20038;-80
2022/03/09 03:15:05;;;;;;;16.95;7.32;;;;;;;;;;4995438;28;20169;-80
2022/03/09 03:17:35;;;;;;;21.52;7.78;;;;;;;;;;4986575;28;20087;-80
2022/03/09 03:20:01;;;;;;;19.48;6.78;;;;;;;;;;4981872;28;21342;-80
2022/03/09 03:22:27;;;;;;;14.73;6.63;;;;;;;;;;4999547;28;20474;-80
2022/03/09 03:24:53;;;;;;;16.70;6.30;;;;;;;;;;5001459;28;20030;-80
2022/03/09 03:27:19;;;;;;;13.27;5.70;;;;;;;;;;4983627;28;20036;-80
2022/03/09 03:29:45;;;;;;;11.63;6.25;;;;;;;;;;4981711;28;20030;-80
2022/03/09 03:32:11;;;;;;;10.65;5.72;;;;;;;;;;4980640;28;20026;-80
2022/03/09 03:34:37;;;;;;;19.30;5.60;;;;;;;;;;5002172;28;20072;-80
2022/03/09 03:37:04;;;;;;;12.32;5.88;;;;;;;;;;4979548;28;20466;-80
2022/03/09 03:39:30;;;;;;;12.35;5.88;;;;;;;;;;4995892;28;20034;-80
2022/03/09 03:41:56;;;;;;;15.07;5.70;;;;;;;;;;4985238;28;20048;-80
2022/03/09 03:44:22;;;;;;;14.52;6.20;;;;;;;;;;4980102;28;20034;-80
2022/03/09 03:46:48;;;;;;;19.27;6.03;;;;;;;;;;4996988;28;20482;-80
2022/03/09 03:49:14;;;;;;;18.88;6.78;;;;;;;;;;4978330;28;20034;-80
2022/03/09 03:51:41;;;;;;;27.77;7.47;;;;;;;;;;4996123;28;20473;-80
2022/03/09 03:54:07;;;;;;;17.42;6.85;;;;;;;;;;4999058;28;20052;-80
2022/03/09 03:56:33;;;;;;;13.82;6.20;;;;;;;;;;4982483;28;20711;-80
2022/03/09 03:58:59;;;;;;;13.70;7.18;;;;;;;;;;4983784;28;20030;-80
2022/03/09 04:01:25;;;;;;;18.75;7.28;;;;;;;;;;4983572;28;20037;-80
2022/03/09 04:03:51;;;;;;;15.15;6.68;;;;;;;;;;4997495;28;20045;-80
2022/03/09 04:06:18;;;;;;;12.10;5.60;;;;;;;;;;4997403;28;20030;-80
2022/03/09 04:08:44;;;;;;;10.77;5.45;;;;;;;;;;4981735;28;20108;-80
2022/03/09 04:11:10;;;;;;;14.30;6.07;;;;;;;;;;4997418;28;20030;-80
2022/03/09 04:13:36;;;;;;;14.05;6.03;;;;;;;;;;4979812;28;20470;-80
2022/03/09 04:16:02;;;;;;;14.25;6.15;;;;;;;;;;4983375;28;20530;-80
2022/03/09 04:18:28;;;;;;;15.55;5.50;;;;;;;;;;5001701;28;20515;-80
2022/03/09 04:20:55;;;;;;;14.07;6.22;;;;;;;;;;4981526;28;20497;-80
2022/03/09 04:23:21;;;;;;;13.60;5.90;;;;;;;;;;4983317;28;20109;-80
2022/03/09 04:25:47;;;;;;;11.40;5.43;;;;;;;;;;4997805;28;20076;-80
2022/03/09 04:28:13;;;;;;;13.68;5.57;;;;;;;;;;5003315;28;20021;-80
2022/03/09 04:30:39;;;;;;;19.08;6.00;;;;;;;;;;4999301;28;20121;-81
2022/03/09 04:33:06;;;;;;;14.63;5.88;;;;;;;;;;4982853;28;20117;-80
2022/03/09 04:35:32;;;;;;;13.93;6.13;;;;;;;;;;4987756;28;20435;-80
2022/03/09 04:37:58;;;;;;;11.90;5.20;;;;;;;;;;4981807;28;20461;-80
2022/03/09 04:40:24;;;;;;;17.85;6.63;;;;;;;;;;4984964;28;20616;-80
2022/03/09 04:42:50;;;;;;;13.82;5.85;;;;;;;;;;4977730;28;20030;-80
2022/03/09 04:45:16;;;;;;;10.27;5.60;;;;;;;;;;4981978;28;20460;-80
2022/03/09 04:47:42;;;;;;;11.35;6.05;;;;;;;;;;4999105;28;20053;-80
2022/03/09 04:50:08;;;;;;;21.45;5.82;;;;;;;;;;4983462;28;20257;-80
2022/03/09 04:52:34;;;;;;;19.33;6.40;;;;;;;;;;4984854;28;20497;-80
2022/03/09 04:55:00;;;;;;;17.75;6.45;;;;;;;;;;5002557;28;20025;-80
2022/03/09 04:57:26;;;;;;;15.40;5.72;;;;;;;;;;4980953;28;20404;-79
2022/03/09 04:59:52;;;;;;;14.88;6.20;;;;;;;;;;4981182;28;20556;-80
2022/03/09 05:02:18;;;;;;;13.48;6.55;;;;;;;;;;4998248;28;20057;-80
2022/03/09 05:04:45;;;;;;;11.45;6.32;;;;;;;;;;4997204;28;20122;-80
2022/03/09 05:07:11;;;;;;;12.30;5.82;;;;;;;;;;4980375;28;20475;-80
2022/03/09 05:09:37;;;;;;;17.20;6.72;;;;;;;;;;4984331;28;20050;-81
2022/03/09 05:12:03;;;;;;;19.48;6.80;;;;;;;;;;4978794;28;20049;-80
2022/03/09 05:14:29;;;;;;;18.65;6.80;;;;;;;;;;4980405;28;20048;-80
2022/03/09 05:16:55;;;;;;;22.02;7.43;;;;;;;;;;4984467;28;20072;-80
2022/03/09 05:19:21;;;;;;;19.05;6.28;;;;;;;;;;4995314;28;20065;-79
2022/03/09 05:21:47;;;;;;;16.33;6.15;;;;;;;;;;4982538;28;20022;-80
2022/03/09 05:24:16;;;;;;;12.70;5.95;;;;;;;;;;4994613;28;20053;-80
2022/03/09 05:26:43;;;;;;;20.63;6.63;;;;;;;;;;4978432;28;20026;-80
2022/03/09 05:29:09;;;;;;;17.10;7.45;;;;;;;;;;4985707;28;20037;-80
2022/03/09 05:31:35;;;;;;;13.65;6.63;;;;;;;;;;4995634;28;20037;-80
2022/03/09 05:34:02;;;;;;;14.18;6.63;;;;;;;;;;4998100;28;20096;-81
2022/03/09 05:36:28;;;;;;;13.85;6.63;;;;;;;;;;4980400;28;20033;-80
2022/03/09 05:38:54;;;;;;;25.65;6.80;;;;;;;;;;4979021;28;20030;-80
2022/03/09 05:41:23;;;;;;;14.52;6.43;;;;;;;;;;4980378;28;20084;-80
2022/03/09 05:43:50;;;;;;;12.95;6.78;;;;;;;;;;4987311;28;20030;-80
2022/03/09 05:46:17;;;;;;;17.00;6.97;;;;;;;;;;4996600;28;20183;-80
2022/03/09 05:48:43;;;;;;;17.98;6.88;;;;;;;;;;4994551;28;20690;-80
2022/03/09 05:51:09;;;;;;;22.45;8.27;;;;;;;;;;4979419;28;20473;-80
2022/03/09 05:53:35;;;;;;;22.13;8.23;;;;;;;;;;4978592;28;20061;-80
2022/03/09 05:56:02;;;;;;;20.10;8.18;;;;;;;;;;5000392;28;20088;-80
2022/03/09 05:58:28;;;;;;;23.00;8.00;;;;;;;;;;4997022;28;20022;-80
2022/03/09 06:00:54;;;;;;;19.15;8.15;;;;;;;;;;4980489;28;20025;-80
2022/03/09 06:03:23;;;;;;;20.52;7.22;;;;;;;;;;4995350;28;20033;-80
2022/03/09 06:05:49;;;;;;;19.15;6.78;;;;;;;;;;4980582;28;20041;-80
2022/03/09 06:08:15;;;;;;;21.38;8.23;;;;;;;;;;4994312;28;20359;-80
2022/03/09 06:10:41;;;;;;;20.88;8.23;;;;;;;;;;4984522;28;20030;-80
2022/03/09 06:13:07;;;;;;;22.98;7.78;;;;;;;;;;4999644;28;20049;-80
2022/03/09 06:15:33;;;;;;;15.25;7.00;;;;;;;;;;4995790;28;20030;-80
2022/03/09 06:17:59;;;;;;;16.02;7.40;;;;;;;;;;4994301;28;20034;-80
2022/03/09 06:20:28;;;;;;;13.60;6.80;;;;;;;;;;4984797;28;20500;-80
2022/03/09 06:22:54;;;;;;;14.85;6.15;;;;;;;;;;4994459;28;20037;-80
2022/03/09 06:25:21;;;;;;;14.45;6.82;;;;;;;;;;4991517;28;20053;-80
2022/03/09 06:27:48;;;;;;;15.60;6.00;;;;;;;;;;5002751;28;20417;-79
2022/03/09 06:30:15;;;;;;;12.00;6.43;;;;;;;;;;4978019;28;20445;-80
2022/03/09 06:32:41;;;;;;;15.60;6.35;;;;;;;;;;5003289;28;20485;-80
2022/03/09 06:35:08;;;;;;;24.40;6.80;;;;;;;;;;4985030;28;20033;-80
2022/03/09 06:37:34;;;;;;;12.35;6.43;;;;;;;;;;4980299;28;20037;-80
2022/03/09 06:40:01;;;;;;;16.85;6.60;;;;;;;;;;5002737;28;20026;-80
2022/03/09 06:42:28;;;;;;;13.68;5.80;;;;;;;;;;4982571;28;20532;-80
2022/03/09 06:44:54;;;;;;;16.70;6.32;;;;;;;;;;4985225;28;20080;-80
2022/03/09 06:47:20;;;;;;;18.27;7.05;;;;;;;;;;4978680;28;20421;-80
2022/03/09 06:49:46;;;;;;;15.27;6.45;;;;;;;;;;4999388;28;20112;-80
2022/03/09 06:52:13;;;;;;;11.52;6.05;;;;;;;;;;4980839;28;20033;-80
2022/03/09 06:54:41;;;;;;;13.32;5.88;;;;;;;;;;4998715;28;20052;-80
2022/03/09 06:57:07;;;;;;;15.20;5.82;;;;;;;;;;4977425;28;20668;-80
2022/03/09 06:59:33;;;;;;;14.43;6.50;;;;;;;;;;4998020;28;20837;-79
2022/03/09 07:01:59;;;;;;;14.48;5.90;;;;;;;;;;4987224;28;20052;-80
2022/03/09 07:04:31;;;;;;;20.48;7.35;;;;;;;;;;4998054;28;20926;-80
2022/03/09 07:06:57;;;;;;;19.17;6.10;;;;;;;;;;5000991;28;20061;-80
2022/03/09 07:09:23;;;;;;;16.50;6.60;;;;;;;;;;4982358;28;20132;-80
2022/03/09 07:11:49;;;;;;;16.15;6.63;;;;;;;;;;4997920;28;20088;-80
2022/03/09 07:14:15;;;;;;;18.23;6.80;;;;;;;;;;4997760;28;20270;-80
2022/03/09 07:16:41;;;;;;;15.05;6.35;;;;;;;;;;4981606;28;20504;-80
2022/03/09 07:19:07;;;;;;;15.43;7.10;;;;;;;;;;4975042;28;20560;-80
2022/03/09 07:21:33;;;;;;;17.98;6.32;;;;;;;;;;4977479;28;20044;-80
2022/03/09 07:23:59;;;;;;;13.05;6.38;;;;;;;;;;4985515;28;20049;-80
2022/03/09 07:26:26;;;;;;;15.52;6.13;;;;;;;;;;4982062;28;20490;-79
2022/03/09 07:28:53;;;;;;;15.93;6.47;;;;;;;;;;4985594;28;20525;-80
2022/03/09 07:31:19;;;;;;;14.23;6.85;;;;;;;;;;4978515;28;20037;-80
2022/03/09 07:33:45;;;;;;;14.75;6.45;;;;;;;;;;4983623;28;20026;-80
2022/03/09 07:36:11;;;;;;;16.30;7.10;;;;;;;;;;4988403;28;20409;-80
2022/03/09 07:38:44;;;;;;;20.05;6.53;;;;;;;;;;4993666;28;20034;-80
2022/03/09 07:41:10;;;;;;;13.15;6.80;;;;;;;;;;4998805;28;20952;-80
2022/03/09 07:43:36;;;;;;;14.30;6.43;;;;;;;;;;5005057;28;20030;-80
2022/03/09 07:46:02;;;;;;;12.38;6.68;;;;;;;;;;4998295;28;20076;-80
2022/03/09 07:48:28;;;;;;;19.25;6.43;;;;;;;;;;4980299;28;20018;-80
2022/03/09 07:50:54;;;;;;;16.77;5.88;;;;;;;;;;4991556;28;20441;-80
2022/03/09 07:53:22;;;;;;;12.63;6.30;;;;;;;;;;4979547;28;20034;-81
2022/03/09 07:55:49;;;;;;;13.27;6.57;;;;;;;;;;4984199;28;20109;-80
2022/03/09 07:58:15;;;;;;;13.30;6.50;;;;;;;;;;4979276;28;20485;-81
2022/03/09 08:00:41;;;;;;;15.45;6.45;;;;;;;;;;4975573;28;20053;-80
2022/03/09 08:03:07;;;;;;;12.68;6.65;;;;;;;;;;4994887;28;20030;-80
2022/03/09 08:05:34;;;;;;;13.80;6.93;;;;;;;;;;4979368;28;20406;-81
2022/03/09 08:08:00;;;;;;;14.35;6.65;;;;;;;;;;4994935;28;20030;-80
2022/03/09 08:10:26;;;;;;;12.07;6.15;;;;;;;;;;4991780;28;20493;-81
2022/03/09 08:12:52;;;;;;;17.75;7.22;;;;;;;;;;4994464;28;20030;-80
2022/03/09 08:15:19;;;;;;;14.80;6.90;;;;;;;;;;4980668;28;20144;-81
2022/03/09 08:17:45;;;;;;;20.73;7.10;;;;;;;;;;4995399;28;20045;-80
2022/03/09 08:20:11;;;;;;;17.17;6.93;;;;;;;;;;4998654;28;20039;-81
2022/03/09 08:22:39;;;;;;;12.90;7.15;;;;;;;;;;4980263;28;20103;-80
2022/03/09 08:25:05;;;;;;;15.90;6.22;;;;;;;;;;4995065;28;20440;-80
2022/03/09 08:27:31;;;;;;;12.20;6.70;;;;;;;;;;4981473;28;20057;-81
2022/03/09 08:29:58;;;;;;;12.35;6.00;;;;;;;;;;4977505;28;20028;-80
2022/03/09 08:32:24;;;;;;;16.13;6.68;;;;;;;;;;4980538;28;20859;-81
2022/03/09 08:34:50;;;;;;;13.90;6.50;;;;;;;;;;4998681;28;20029;-81
2022/03/09 08:37:17;;;;;;;17.08;6.55;;;;;;;;;;4979157;28;20031;-80
2022/03/09 08:39:45;;;;;;;15.50;6.78;;;;;;;;;;4996922;28;20038;-81
2022/03/09 08:42:11;;;;;;;11.18;5.85;;;;;;;;;;4983520;28;20481;-81
2022/03/09 08:44:37;;;;;;;9.55;5.68;;;;;;;;;;4974920;28;20069;-80
2022/03/09 08:47:04;;;;;;;11.18;6.38;;;;;;;;;;4999442;28;20034;-81
2022/03/09 08:49:30;;;;;;;11.25;6.75;;;;;;;;;;4995800;28;20044;-81
2022/03/09 08:51:56;;;;;;;10.10;6.15;;;;;;;;;;4976717;28;20034;-81
2022/03/09 08:54:22;;;;;;;10.77;6.53;;;;;;;;;;4982089;28;20221;-81
2022/03/09 08:56:49;;;;;;;14.52;7.28;;;;;;;;;;4993483;28;20030;-81
2022/03/09 08:59:15;;;;;;;14.57;7.55;;;;;;;;;;4991399;28;20618;-81
2022/03/09 09:01:41;;;;;;;15.55;7.20;;;;;;;;;;4982557;28;20057;-81
2022/03/09 09:04:07;;;;;;;11.65;6.53;;;;;;;;;;4979363;28;20504;-81
2022/03/09 09:06:33;;;;;;;9.60;6.20;;;;;;;;;;4985297;28;20038;-81
2022/03/09 09:09:11;;;;;;;13.65;6.60;;;;;;;;;;4993886;28;20061;-81
2022/03/09 09:11:38;;;;;;;15.52;6.55;;;;;;;;;;5003108;28;20042;-80
2022/03/09 09:14:04;;;;;;;14.38;6.30;;;;;;;;;;4997515;28;20026;-81
2022/03/09 09:16:30;;;;;;;14.63;6.53;;;;;;;;;;5000625;28;20133;-81
2022/03/09 09:18:57;;;;;;;14.07;6.75;;;;;;;;;;4993856;28;20125;-81
2022/03/09 09:21:32;;;;;;;10.90;6.50;;;;;;;;;;4978589;28;20069;-81
2022/03/09 09:23:58;;;;;;;9.57;5.60;;;;;;;;;;4977138;28;20133;-80
2022/03/09 09:26:24;;;;;;;11.65;6.35;;;;;;;;;;4979738;28;20062;-81
2022/03/09 09:28:50;;;;;;;12.70;7.13;;;;;;;;;;4983271;28;20038;-81
2022/03/09 09:31:16;;;;;;;9.70;6.68;;;;;;;;;;4976883;28;20854;-81
2022/03/09 09:33:42;;;;;;;13.93;7.13;;;;;;;;;;4996389;28;20533;-81
2022/03/09 09:36:08;;;;;;;15.95;6.75;;;;;;;;;;4994243;28;20621;-81
2022/03/09 09:38:34;;;;;;;11.27;6.32;;;;;;;;;;4985267;28;20045;-81
2022/03/09 09:41:01;;;;;;;13.02;7.70;;;;;;;;;;4977091;28;20044;-80
2022/03/09 09:43:27;;;;;;;14.25;6.25;;;;;;;;;;4996306;28;20030;-81
2022/03/09 09:45:53;;;;;;;14.35;8.10;;;;;;;;;;4997536;28;20034;-81
2022/03/09 09:48:19;;;;;;;13.65;7.00;;;;;;;;;;4995542;28;20088;-81
2022/03/09 09:50:46;;;;;;;15.85;7.85;;;;;;;;;;4999077;28;20116;-81
2022/03/09 09:53:13;;;;;;;12.10;6.80;;;;;;;;;;4993144;28;20161;-81
2022/03/09 09:55:40;;;;;;;15.80;8.80;;;;;;;;;;4983583;28;20041;-81
2022/03/09 09:58:06;;;;;;;11.88;7.13;;;;;;;;;;4977705;28;20034;-81
2022/03/09 10:00:32;;;;;;;11.52;6.82;;;;;;;;;;4982507;28;20073;-81
2022/03/09 10:02:58;;;;;;;12.52;7.68;;;;;;;;;;4994991;28;20470;-81
2022/03/09 10:05:25;;;;;;;14.75;7.72;;;;;;;;;;4982971;28;20026;-80
2022/03/09 10:08:03;;;;;;;11.35;6.85;;;;;;;;;;4975104;28;20037;-81
2022/03/09 10:10:44;;;;;;;12.52;8.05;;;;;;;;;;4983138;28;20523;-81
2022/03/09 10:13:12;;;;;;;12.85;7.50;;;;;;;;;;4992646;28;20538;-81
2022/03/09 10:15:38;;;;;;;13.18;7.15;;;;;;;;;;4986845;28;20076;-81
2022/03/09 10:18:11;;;;;;;14.13;7.18;;;;;;;;;;4979244;28;20026;-80
2022/03/09 10:20:37;;;;;;;11.88;7.55;;;;;;;;;;4979366;28;20045;-80
2022/03/09 10:23:03;;;;;;;16.33;7.40;;;;;;;;;;4981493;28;20436;-81
2022/03/09 10:25:30;;;;;;;10.77;7.07;;;;;;;;;;4991434;28;20030;-81
2022/03/09 10:27:56;;;;;;;12.57;7.82;;;;;;;;;;4999517;28;20028;-81
2022/03/09 10:30:33;;;;;;;16.33;8.07;;;;;;;;;;4976887;28;20056;-81
2022/03/09 10:33:00;;;;;;;19.23;7.97;;;;;;;;;;4978088;28;20493;-81
2022/03/09 10:35:29;;;;;;;15.48;8.20;;;;;;;;;;4995742;28;20080;-81
2022/03/09 10:37:56;;;;;;;13.75;8.02;;;;;;;;;;4988244;28;20085;-81
2022/03/09 10:40:22;;;;;;;11.20;7.88;;;;;;;;;;4980384;28;20690;-81
2022/03/09 10:42:49;;;;;;;10.95;7.57;;;;;;;;;;4988844;28;20022;-81
2022/03/09 10:45:17;;;;;;;12.05;7.65;;;;;;;;;;4990795;28;20249;-81
2022/03/09 10:47:49;;;;;;;14.82;8.77;;;;;;;;;;4976425;28;20480;-81
2022/03/09 10:50:23;;;;;;;14.35;7.00;;;;;;;;;;4994565;28;20489;-81
2022/03/09 10:52:49;;;;;;;12.90;7.95;;;;;;;;;;4983705;28;20122;-81
2022/03/09 10:55:24;;;;;;;13.05;7.70;;;;;;;;;;4996876;28;20580;-81
2022/03/09 10:57:51;;;;;;;13.55;7.72;;;;;;;;;;4979536;28;20099;-81
2022/03/09 11:00:34;;;;;;;11.05;7.82;;;;;;;;;;4983157;28;20022;-81
2022/03/09 11:03:11;;;;;;;12.27;7.82;;;;;;;;;;4980193;28;20037;-81
2022/03/09 11:05:37;;;;;;;11.85;7.75;;;;;;;;;;4995576;28;20022;-81
2022/03/09 11:08:04;;;;;;;11.90;7.57;;;;;;;;;;4982861;28;20626;-81
2022/03/09 11:10:30;;;;;;;11.70;8.35;;;;;;;;;;4985914;28;20879;-81
2022/03/09 11:12:57;;;;;;;11.73;7.90;;;;;;;;;;4983423;28;20058;-81
2022/03/09 11:15:24;;;;;;;10.85;7.78;;;;;;;;;;4983038;28;20046;-81
2022/03/09 11:17:50;;;;;;;12.50;7.95;;;;;;;;;;5002295;28;20045;-81
2022/03/09 11:20:16;;;;;;;14.70;7.82;;;;;;;;;;5002934;28;20490;-82
2022/03/09 11:22:43;;;;;;;16.50;8.18;;;;;;;;;;4983196;28;20460;-82
2022/03/09 11:25:09;;;;;;;15.23;8.57;;;;;;;;;;4990349;28;20096;-82
2022/03/09 11:27:42;;;;;;;11.85;7.75;;;;;;;;;;4980361;28;20282;-82
2022/03/09 11:30:27;;;;;;;14.98;8.82;;;;;;;;;;5001912;28;20108;-81
2022/03/09 11:32:55;;;;;;;12.55;9.00;;;;;;;;;;4979905;28;20217;-82
2022/03/09 11:35:37;;;;;;;12.88;7.75;;;;;;;;;;4996448;28;20025;-81
2022/03/09 11:38:23;;;;;;;14.13;8.50;;;;;;;;;;4986877;28;20083;-81
2022/03/09 11:41:08;;;;;;;13.45;8.48;;;;;;;;;;4981517;28;20029;-82
2022/03/09 11:43:34;;;;;;;14.88;8.13;;;;;;;;;;4985468;28;20456;-82
2022/03/09 11:46:00;;;;;;;12.68;8.13;;;;;;;;;;4989983;28;20014;-82
2022/03/09 11:48:46;;;;;;;18.08;8.20;;;;;;;;;;4994310;28;20472;-82
2022/03/09 11:51:13;;;;;;;14.00;7.95;;;;;;;;;;4982007;28;20068;-81
2022/03/09 11:53:44;;;;;;;12.25;8.07;;;;;;;;;;4977934;28;20486;-82
2022/03/09 11:56:23;;;;;;;12.68;8.20;;;;;;;;;;4976831;28;20268;-81
2022/03/09 11:59:08;;;;;;;12.60;7.85;;;;;;;;;;4978887;28;20029;-81
2022/03/09 12:01:54;;;;;;;12.13;8.80;;;;;;;;;;4990162;28;20046;-82
2022/03/09 12:04:45;;;;;;;13.10;8.32;;;;;;;;;;4983071;28;20401;-82
2022/03/09 12:07:12;;;;;;;11.73;8.18;;;;;;;;;;4980493;28;20485;-82
2022/03/09 12:09:55;;;;;;;11.50;7.60;;;;;;;;;;4980033;28;21343;-82
2022/03/09 12:12:21;;;;;;;13.57;8.73;;;;;;;;;;4982847;28;20224;-82
2022/03/09 12:15:04;;;;;;;11.82;8.40;;;;;;;;;;4977735;28;20033;-82
2022/03/09 12:17:37;;;;;;;13.93;7.65;;;;;;;;;;5000774;28;20030;-82
2022/03/09 12:20:15;;;;;;;17.48;8.57;;;;;;;;;;4970045;28;20057;-82
2022/03/09 12:22:57;;;;;;;13.40;8.85;;;;;;;;;;4995379;28;20026;-82
2022/03/09 12:25:39;;;;;;;17.75;8.07;;;;;;;;;;4978728;28;20042;-81
2022/03/09 12:28:24;;;;;;;11.88;8.25;;;;;;;;;;4976570;28;20038;-82
2022/03/09 12:30:53;;;;;;;12.50;7.50;;;;;;;;;;4980976;28;20091;-81
2022/03/09 12:33:27;;;;;;;11.55;7.55;;;;;;;;;;4977612;28;20651;-81
2022/03/09 12:35:53;;;;;;;12.55;7.30;;;;;;;;;;4973732;28;20040;-82
2022/03/09 12:38:20;;;;;;;14.65;7.93;;;;;;;;;;4974964;28;20125;-81
2022/03/09 12:40:46;;;;;;;12.80;7.50;;;;;;;;;;4990053;28;20038;-82
2022/03/09 12:43:16;;;;;;;9.80;6.82;;;;;;;;;;4989199;28;21031;-82
2022/03/09 12:45:55;;;;;;;12.55;7.72;;;;;;;;;;4980345;28;20385;-81
2022/03/09 12:48:21;;;;;;;13.15;7.85;;;;;;;;;;4977655;28;20023;-82
2022/03/09 12:50:48;;;;;;;13.88;7.63;;;;;;;;;;4977464;28;20134;-82
2022/03/09 12:53:20;;;;;;;14.27;7.57;;;;;;;;;;4994848;28;20125;-81
2022/03/09 12:55:47;;;;;;;16.33;9.80;;;;;;;;;;4996890;28;20033;-82
2022/03/09 12:58:20;;;;;;;12.98;7.43;;;;;;;;;;4998407;28;20493;-82
2022/03/09 13:00:46;;;;;;;10.57;7.38;;;;;;;;;;4996776;28;20101;-81
2022/03/09 13:03:12;;;;;;;11.60;7.55;;;;;;;;;;4992195;28;20727;-82
2022/03/09 13:05:39;;;;;;;13.82;7.53;;;;;;;;;;4996869;28;20548;-81
2022/03/09 13:08:06;;;;;;;13.18;8.18;;;;;;;;;;4982525;28;20397;-81
2022/03/09 13:10:39;;;;;;;11.85;7.43;;;;;;;;;;4981281;28;20042;-81
2022/03/09 13:13:05;;;;;;;14.02;8.18;;;;;;;;;;4979416;28;20041;-82
2022/03/09 13:15:34;;;;;;;12.75;7.88;;;;;;;;;;4998218;28;20030;-82
2022/03/09 13:18:01;;;;;;;14.05;8.02;;;;;;;;;;4995318;28;20037;-82
2022/03/09 13:20:27;;;;;;;13.88;8.05;;;;;;;;;;4979233;28;20271;-81
2022/03/09 13:22:53;;;;;;;14.88;7.93;;;;;;;;;;4979230;28;20130;-82
2022/03/09 13:25:19;;;;;;;12.68;7.47;;;;;;;;;;4983328;28;20029;-81
2022/03/09 13:27:45;;;;;;;14.48;8.40;;;;;;;;;;4985189;28;20026;-81
2022/03/09 13:30:12;;;;;;;11.55;7.55;;;;;;;;;;4993323;28;20061;-82
2022/03/09 13:32:38;;;;;;;13.98;7.95;;;;;;;;;;4999567;28;20070;-82
2022/03/09 13:35:05;;;;;;;14.27;8.07;;;;;;;;;;4992275;28;20033;-81
2022/03/09 13:37:35;;;;;;;10.80;7.63;;;;;;;;;;4997842;28;21064;-81
2022/03/09 13:40:02;;;;;;;15.15;8.13;;;;;;;;;;4981482;28;20062;-81
2022/03/09 13:42:35;;;;;;;12.48;8.27;;;;;;;;;;4981802;28;20030;-81
2022/03/09 13:45:05;;;;;;;12.80;8.57;;;;;;;;;;4993653;28;20824;-82
2022/03/09 13:47:31;;;;;;;10.95;7.00;;;;;;;;;;4979921;28;20038;-82
2022/03/09 13:49:57;;;;;;;15.43;8.45;;;;;;;;;;4997909;28;20495;-82
2022/03/09 13:52:31;;;;;;;11.35;7.45;;;;;;;;;;4976510;28;20381;-82
2022/03/09 13:54:58;;;;;;;12.98;8.68;;;;;;;;;;4996882;28;20030;-82
2022/03/09 13:57:28;;;;;;;14.75;7.90;;;;;;;;;;4998689;28;20704;-81
2022/03/09 13:59:54;;;;;;;9.70;7.25;;;;;;;;;;4996154;28;20037;-82
2022/03/09 14:02:21;;;;;;;14.85;7.82;;;;;;;;;;4988883;28;20022;-82
2022/03/09 14:04:48;;;;;;;11.50;7.30;;;;;;;;;;4994854;28;20030;-82
2022/03/09 14:07:15;;;;;;;13.27;7.10;;;;;;;;;;4994180;28;20436;-82
2022/03/09 14:09:41;;;;;;;14.77;7.65;;;;;;;;;;4997377;28;20114;-82
2022/03/09 14:12:17;;;;;;;11.20;7.30;;;;;;;;;;4996927;28;20582;-82
2022/03/09 14:14:43;;;;;;;9.90;7.20;;;;;;;;;;4982453;28;20481;-82
2022/03/09 14:17:09;;;;;;;11.95;7.63;;;;;;;;;;4999970;28;20057;-82
2022/03/09 14:19:35;;;;;;;11.45;7.50;;;;;;;;;;5001326;28;20437;-82
2022/03/09 14:22:01;;;;;;;12.98;7.53;;;;;;;;;;4996773;28;20164;-81
2022/03/09 14:24:30;;;;;;;11.10;7.65;;;;;;;;;;4992945;28;20132;-82
2022/03/09 14:26:56;;;;;;;14.63;7.65;;;;;;;;;;4984237;28;20030;-82
2022/03/09 14:29:27;;;;;;;10.38;7.13;;;;;;;;;;4999198;28;20033;-81
2022/03/09 14:31:53;;;;;;;14.02;7.50;;;;;;;;;;4996799;28;20117;-82
2022/03/09 14:34:19;;;;;;;11.00;7.13;;;;;;;;;;4981868;28;20491;-82
2022/03/09 14:36:46;;;;;;;12.90;6.93;;;;;;;;;;4979234;28;20046;-82